Time;durP1;ratioP1;P1;durP2;ratioP2;P2;SDS_P1;SDS_P2;PMS_P1;PMS_P2;Temp;Humidity;BMP_temperature;BMP_pressure;BME280_temperature;BME280_humidity;BME280_pressure;Samples;Min_cycle;Max_cycle;Signal;HPM_P1;HPM_P2
2023/11/11 00:02:20;;;;;;;11.70;8.40;;;;;;;-147.86;100.00;50194.21;105923;1254;60411;-47
2023/11/11 00:04:47;;;;;;;15.40;8.10;;;;;;;-147.86;100.00;50189.50;105925;1256;73716;-52
2023/11/11 00:07:15;;;;;;;19.10;9.80;;;;;;;-147.86;100.00;50206.37;105907;1257;65488;-49
2023/11/11 00:09:42;;;;;;;11.40;8.80;;;;;;;-147.86;100.00;50227.15;105892;1254;72586;-50
2023/11/11 00:12:09;;;;;;;12.30;9.10;;;;;;;-147.86;100.00;50224.41;105856;1256;61992;-47
2023/11/11 00:14:36;;;;;;;11.60;9.30;;;;;;;-147.86;100.00;50233.04;105907;1255;60416;-48
2023/11/11 00:17:03;;;;;;;11.30;9.40;;;;;;;-147.86;100.00;50212.25;105906;1257;72690;-48
2023/11/11 00:19:30;;;;;;;12.40;8.80;;;;;;;-147.86;100.00;50233.04;105866;1254;64469;-48
2023/11/11 00:21:57;;;;;;;11.90;9.60;;;;;;;-147.86;100.00;50245.20;105860;1254;72651;-49
2023/11/11 00:24:24;;;;;;;11.70;9.50;;;;;;;-147.86;100.00;50255.79;105985;1256;60383;-47
2023/11/11 00:26:51;;;;;;;15.60;10.00;;;;;;;-147.86;100.00;50247.55;105899;1254;60450;-48
2023/11/11 00:29:18;;;;;;;14.70;10.50;;;;;;;-147.86;100.00;50238.53;105840;1256;72834;-46
2023/11/11 00:31:49;;;;;;;16.10;9.00;;;;;;;-147.86;100.00;50249.51;105847;1256;65779;-49
2023/11/11 00:34:16;;;;;;;15.20;10.80;;;;;;;-147.86;100.00;50269.52;105927;1255;70474;-47
2023/11/11 00:36:44;;;;;;;15.90;9.10;;;;;;;-147.86;100.00;50265.99;105880;1256;61819;-47
2023/11/11 00:39:12;;;;;;;12.10;9.40;;;;;;;-147.86;100.00;50263.24;105849;1252;60534;-49
2023/11/11 00:41:39;;;;;;;12.90;9.10;;;;;;;-147.86;100.00;50253.44;105764;1259;72629;-48
2023/11/11 00:44:10;;;;;;;14.20;9.90;;;;;;;-147.86;100.00;50261.28;105900;1256;64474;-49
2023/11/11 00:46:38;;;;;;;16.10;10.20;;;;;;;-147.86;100.00;50280.51;105882;1254;72752;-48
2023/11/11 00:49:06;;;;;;;11.30;9.60;;;;;;;-147.86;100.00;50276.58;105945;1254;61660;-47
2023/11/11 00:51:38;;;;;;;13.10;9.50;;;;;;;-147.86;100.00;50271.88;106015;1254;60526;-47
2023/11/11 00:54:09;;;;;;;14.10;9.40;;;;;;;-147.86;100.00;50282.07;105889;1256;73567;-53
2023/11/11 00:56:39;;;;;;;13.80;8.60;;;;;;;-147.86;100.00;50277.37;105898;1260;64089;-47
2023/11/11 00:59:06;;;;;;;15.30;9.20;;;;;;;-147.86;100.00;50271.88;105597;1254;71489;-47
2023/11/11 01:01:34;;;;;;;15.20;9.10;;;;;;;-147.86;100.00;50267.56;105791;1254;60494;-49
2023/11/11 01:04:03;;;;;;;12.70;9.40;;;;;;;-147.86;100.00;50281.29;105921;1254;60408;-49
2023/11/11 01:06:30;;;;;;;12.20;9.90;;;;;;;-147.86;100.00;50275.41;105887;1256;73816;-54
2023/11/11 01:08:57;;;;;;;14.30;8.90;;;;;;;-147.86;100.00;50279.33;105872;1257;64554;-52
2023/11/11 01:11:24;;;;;;;14.50;8.90;;;;;;;-147.86;100.00;50276.19;105875;1254;73193;-53
2023/11/11 01:13:51;;;;;;;11.00;8.50;;;;;;;-147.86;100.00;50295.80;105938;1254;61930;-48
2023/11/11 01:16:18;;;;;;;13.20;8.60;;;;;;;-147.86;100.00;50281.29;105897;1255;60437;-50
2023/11/11 01:18:45;;;;;;;12.50;8.90;;;;;;;-147.86;100.00;50291.49;105699;1259;73915;-47
2023/11/11 01:21:12;;;;;;;12.20;9.20;;;;;;;-147.86;100.00;50291.88;105892;1258;64403;-52
2023/11/11 01:23:41;;;;;;;10.90;8.50;;;;;;;-147.86;100.00;50307.18;105707;1257;72540;-47
2023/11/11 01:26:08;;;;;;;13.40;9.00;;;;;;;-147.86;100.00;50311.49;105687;1259;61940;-48
2023/11/11 01:28:35;;;;;;;11.10;8.40;;;;;;;-147.86;100.00;50315.42;105682;1254;60443;-47
2023/11/11 01:31:03;;;;;;;13.40;8.30;;;;;;;-147.86;100.00;50304.43;105701;1259;73771;-51
2023/11/11 01:33:30;;;;;;;11.60;8.70;;;;;;;-147.86;100.00;50298.16;105904;1254;65437;-49
2023/11/11 01:36:03;;;;;;;9.20;7.50;;;;;;;-147.86;100.00;50296.20;105719;1258;72763;-46
2023/11/11 01:38:31;;;;;;;13.90;8.40;;;;;;;-147.86;100.00;50302.08;105733;1260;60411;-49
2023/11/11 01:40:58;;;;;;;9.90;8.80;;;;;;;-147.86;100.00;50307.18;105908;1254;60448;-49
2023/11/11 01:43:25;;;;;;;12.70;8.90;;;;;;;-147.86;100.00;50294.23;105855;1256;73932;-49
2023/11/11 01:45:55;;;;;;;14.30;9.30;;;;;;;-147.86;100.00;50293.05;105843;1256;64652;-51
2023/11/11 01:48:22;;;;;;;11.90;8.20;;;;;;;-147.86;100.00;50311.89;105922;1257;72433;-49
2023/11/11 01:50:49;;;;;;;9.20;8.10;;;;;;;-147.86;100.00;50307.18;105670;1259;62079;-49
2023/11/11 01:53:17;;;;;;;11.40;8.20;;;;;;;-147.86;100.00;50312.28;105831;1257;60331;-51
2023/11/11 01:55:44;;;;;;;10.90;9.00;;;;;;;-147.86;100.00;50307.18;105938;1256;73674;-50
2023/11/11 01:58:12;;;;;;;12.20;9.10;;;;;;;-147.86;100.00;50292.27;105684;1260;64786;-49
2023/11/11 02:00:39;;;;;;;20.70;10.10;;;;;;;-147.86;100.00;50289.53;105862;1255;71219;-53
2023/11/11 02:03:06;;;;;;;16.20;10.60;;;;;;;-147.86;100.00;50315.42;105878;1256;61980;-48
2023/11/11 02:05:34;;;;;;;13.10;10.40;;;;;;;-147.86;100.00;50294.63;105926;1254;60542;-49
2023/11/11 02:08:03;;;;;;;16.60;10.40;;;;;;;-147.86;100.00;50306.39;105861;1256;73789;-50
2023/11/11 02:10:32;;;;;;;13.40;10.10;;;;;;;-147.86;100.00;50313.07;105880;1257;65947;-49
2023/11/11 02:12:59;;;;;;;14.20;10.40;;;;;;;-147.86;100.00;50322.09;105667;1257;72660;-47
2023/11/11 02:15:26;;;;;;;15.10;10.70;;;;;;;-147.86;100.00;50312.28;105695;1260;61905;-51
2023/11/11 02:17:54;;;;;;;12.90;10.60;;;;;;;-147.86;100.00;50306.79;105928;1257;60482;-52
2023/11/11 02:20:21;;;;;;;15.80;11.20;;;;;;;-147.86;100.00;50304.04;105676;1253;73729;-49
2023/11/11 02:22:48;;;;;;;14.00;10.20;;;;;;;-147.86;100.00;50298.16;105692;1253;64479;-48
2023/11/11 02:25:15;;;;;;;17.20;10.50;;;;;;;-147.86;100.00;50302.08;105821;1254;72472;-50
2023/11/11 02:27:44;;;;;;;19.20;11.10;;;;;;;-147.86;100.00;50312.28;105674;1254;61847;-49
2023/11/11 02:30:12;;;;;;;15.00;9.80;;;;;;;-147.86;100.00;50327.58;105743;1252;60462;-51
2023/11/11 02:32:40;;;;;;;16.00;10.40;;;;;;;-147.86;100.00;50328.36;105906;1257;73878;-53
2023/11/11 02:35:07;;;;;;;13.50;10.00;;;;;;;-147.86;100.00;50322.87;105903;1256;64681;-51
2023/11/11 02:37:34;;;;;;;15.90;9.60;;;;;;;-147.86;100.00;50337.78;105894;1257;72613;-46
2023/11/11 02:40:01;;;;;;;14.00;9.30;;;;;;;-147.86;100.00;50334.64;105765;1260;61828;-47
2023/11/11 02:42:28;;;;;;;12.20;8.90;;;;;;;-147.86;100.00;50315.42;105939;1254;60412;-52
2023/11/11 02:44:55;;;;;;;11.60;9.10;;;;;;;-147.86;100.00;50322.09;105708;1253;72453;-47
2023/11/11 02:47:22;;;;;;;15.70;8.90;;;;;;;-147.86;100.00;50329.54;105717;1254;64819;-51
2023/11/11 02:49:49;;;;;;;10.50;9.40;;;;;;;-147.86;100.00;50318.55;105839;1257;72622;-51
2023/11/11 02:52:16;;;;;;;14.90;8.50;;;;;;;-147.86;100.00;50314.24;105824;1257;61844;-52
2023/11/11 02:54:43;;;;;;;15.10;9.80;;;;;;;-147.86;100.00;50321.70;105917;1253;60799;-48
2023/11/11 02:57:10;;;;;;;17.30;9.70;;;;;;;-147.86;100.00;50336.21;105893;1254;73794;-51
2023/11/11 02:59:39;;;;;;;13.10;9.30;;;;;;;-147.86;100.00;50317.77;105902;1257;65433;-52
2023/11/11 03:02:07;;;;;;;13.90;9.30;;;;;;;-147.86;100.00;50339.74;105928;1257;72641;-48
2023/11/11 03:04:39;;;;;;;16.80;9.80;;;;;;;-147.86;100.00;50343.66;105649;1260;61963;-48
2023/11/11 03:07:06;;;;;;;17.30;10.50;;;;;;;-147.86;100.00;50333.86;105834;1254;60466;-49
2023/11/11 03:09:33;;;;;;;16.30;9.50;;;;;;;-147.86;100.00;50340.13;105678;1257;73838;-50
2023/11/11 03:12:01;;;;;;;18.70;9.90;;;;;;;-147.86;100.00;50340.52;105840;1257;65757;-49
2023/11/11 03:14:28;;;;;;;15.10;10.50;;;;;;;-147.86;100.00;50335.43;105947;1257;72671;-46
2023/11/11 03:16:55;;;;;;;16.20;10.80;;;;;;;-147.86;100.00;50353.07;105903;1266;60402;-50
2023/11/11 03:19:24;;;;;;;19.60;12.00;;;;;;;-147.86;100.00;50342.09;105754;1254;61084;-51
2023/11/11 03:21:52;;;;;;;23.40;11.80;;;;;;;-147.86;100.00;50348.76;105824;1256;73827;-51
2023/11/11 03:24:19;;;;;;;21.70;12.10;;;;;;;-147.86;100.00;50359.35;105904;1255;64499;-47
2023/11/11 03:26:46;;;;;;;21.50;12.10;;;;;;;-147.86;100.00;50349.94;105879;1264;72673;-53
2023/11/11 03:29:13;;;;;;;17.40;11.00;;;;;;;-147.86;100.00;50359.36;105698;1254;61938;-52
2023/11/11 03:31:40;;;;;;;21.90;11.70;;;;;;;-147.86;100.00;50351.51;105900;1257;60450;-51
2023/11/11 03:34:07;;;;;;;20.40;11.10;;;;;;;-147.86;100.00;50353.86;105933;1256;73815;-49
2023/11/11 03:36:34;;;;;;;21.70;11.70;;;;;;;-147.86;100.00;50353.86;105947;1257;65557;-50
2023/11/11 03:39:02;;;;;;;19.20;11.30;;;;;;;-147.86;100.00;50338.56;105938;1256;72687;-52
2023/11/11 03:41:29;;;;;;;23.30;13.40;;;;;;;-147.86;100.00;50346.02;105921;1256;61910;-50
2023/11/11 03:43:56;;;;;;;26.00;13.40;;;;;;;-147.86;100.00;50351.12;105901;1254;60533;-51
2023/11/11 03:46:23;;;;;;;25.60;12.70;;;;;;;-147.86;100.00;50354.64;105965;1257;73871;-48
2023/11/11 03:48:50;;;;;;;26.10;13.10;;;;;;;-147.86;100.00;50358.18;105915;1254;64388;-48
2023/11/11 03:51:18;;;;;;;22.80;12.30;;;;;;;-147.86;100.00;50356.21;105864;1254;72646;-50
2023/11/11 03:53:44;;;;;;;27.10;13.00;;;;;;;-147.86;100.00;50348.76;105862;1257;62011;-49
2023/11/11 03:56:13;;;;;;;25.60;13.20;;;;;;;-147.86;100.00;50366.41;105905;1255;61577;-48
2023/11/11 03:58:42;;;;;;;25.60;14.20;;;;;;;-147.86;100.00;50367.59;105634;1256;369709;-47
2023/11/11 04:02:25;;;;;;;31.20;15.70;;;;;;;-147.86;100.00;50235.82;102788;1290;600954;-50
2023/11/11 04:04:53;;;;;;;27.20;14.30;;;;;;;-147.86;100.00;50445.66;104901;1270;61743;-48
2023/11/11 04:07:22;;;;;;;28.00;15.50;;;;;;;-147.86;100.00;50421.34;104798;1265;59487;-51
2023/11/11 04:09:51;;;;;;;29.60;15.60;;;;;;;-147.86;100.00;50409.57;104756;1274;72217;-53
2023/11/11 04:12:19;;;;;;;29.20;14.50;;;;;;;-147.86;100.00;50382.89;104834;1270;65494;-50
2023/11/11 04:14:47;;;;;;;27.80;15.70;;;;;;;-147.86;100.00;50392.70;104805;1267;71400;-48
2023/11/11 04:17:15;;;;;;;25.90;15.00;;;;;;;-147.86;100.00;50404.86;104987;1270;230306;-49
2023/11/11 04:19:46;;;;;;;28.70;15.00;;;;;;;-147.86;100.00;50400.93;105151;1269;59264;-50
2023/11/11 04:22:14;;;;;;;33.80;15.90;;;;;;;-147.86;100.00;50383.29;104905;1264;72470;-51
2023/11/11 04:24:41;;;;;;;32.00;16.30;;;;;;;-147.86;100.00;50389.95;105178;1264;63887;-46
2023/11/11 04:27:09;;;;;;;31.60;14.90;;;;;;;-147.86;100.00;50393.09;105080;1267;72638;-51
2023/11/11 04:29:37;;;;;;;31.80;14.70;;;;;;;-147.86;100.00;50387.60;105101;1270;60411;-51
2023/11/11 04:32:05;;;;;;;27.20;14.70;;;;;;;-147.86;100.00;50393.88;105098;1264;60050;-49
2023/11/11 04:34:33;;;;;;;26.50;14.40;;;;;;;-147.86;100.00;50383.68;104852;1264;73129;-52
2023/11/11 04:37:01;;;;;;;24.20;14.30;;;;;;;-147.86;100.00;50387.99;104964;1270;64094;-49
2023/11/11 04:39:28;;;;;;;26.20;14.50;;;;;;;-147.86;100.00;50406.04;105068;1269;70471;-54
2023/11/11 04:41:59;;;;;;;22.20;13.20;;;;;;;-147.86;100.00;50393.48;105108;1264;60376;-52
2023/11/11 04:44:27;;;;;;;21.70;13.70;;;;;;;-147.86;100.00;50412.71;105330;1263;59627;-48
2023/11/11 04:46:55;;;;;;;24.50;14.20;;;;;;;-147.86;100.00;50387.99;105194;1263;71828;-50
2023/11/11 04:49:23;;;;;;;21.70;13.40;;;;;;;-147.86;100.00;50409.57;105180;1264;63008;-49
2023/11/11 04:51:50;;;;;;;21.30;11.30;;;;;;;-147.86;100.00;50418.20;105156;1267;71623;-49
2023/11/11 04:54:18;;;;;;;24.20;12.40;;;;;;;-147.86;100.00;50412.70;105180;1264;60400;-50
2023/11/11 04:56:46;;;;;;;19.10;12.30;;;;;;;-147.86;100.00;50384.85;105215;1263;59962;-53
2023/11/11 04:59:14;;;;;;;22.90;10.80;;;;;;;-147.86;100.00;50409.57;105198;1267;73057;-48
2023/11/11 05:01:41;;;;;;;18.10;10.80;;;;;;;-147.86;100.00;50402.11;105311;1260;65184;-51
2023/11/11 05:04:11;;;;;;;18.10;10.60;;;;;;;-147.86;100.00;50407.21;105448;1260;72622;-52
2023/11/11 05:06:39;;;;;;;18.80;9.50;;;;;;;-147.86;100.00;50401.72;105375;1260;60847;-51
2023/11/11 05:09:06;;;;;;;19.40;10.40;;;;;;;-147.86;100.00;50392.70;105356;1264;59565;-50
2023/11/11 05:11:34;;;;;;;15.60;9.70;;;;;;;-147.86;100.00;50379.75;105324;1264;73033;-49
2023/11/11 05:14:06;;;;;;;13.60;8.80;;;;;;;-147.86;100.00;50410.35;105208;1264;64018;-45
2023/11/11 05:16:39;;;;;;;12.60;9.10;;;;;;;-147.86;100.00;50396.23;105255;1264;72463;-52
2023/11/11 05:19:08;;;;;;;17.40;9.70;;;;;;;-147.86;100.00;50401.33;105203;1264;59654;-45
2023/11/11 05:21:36;;;;;;;24.50;11.10;;;;;;;-147.86;100.00;50404.46;105279;1264;59564;-46
2023/11/11 05:24:05;;;;;;;17.50;9.50;;;;;;;-147.86;100.00;50419.77;105251;1261;73005;-47
2023/11/11 05:26:33;;;;;;;16.20;8.90;;;;;;;-147.86;100.00;50393.48;105423;1259;63273;-52
2023/11/11 05:29:01;;;;;;;20.10;10.20;;;;;;;-147.86;100.00;50398.58;105388;1263;72612;-52
2023/11/11 05:31:30;;;;;;;14.60;8.20;;;;;;;-147.86;100.00;50362.88;105274;1261;60850;-49
2023/11/11 05:33:59;;;;;;;13.60;8.90;;;;;;;-147.86;100.00;50371.52;105310;1264;59797;-46
2023/11/11 05:36:27;;;;;;;18.80;9.90;;;;;;;-147.86;100.00;50332.68;105293;1260;71743;-46
2023/11/11 05:38:55;;;;;;;15.70;9.20;;;;;;;-147.86;100.00;50309.54;105248;1263;63239;-49
2023/11/11 05:41:23;;;;;;;16.20;9.50;;;;;;;-147.86;100.00;50272.66;105307;1264;72649;-47
2023/11/11 05:43:51;;;;;;;13.80;9.20;;;;;;;-147.86;100.00;50226.37;105290;1260;61616;-49
2023/11/11 05:46:20;;;;;;;13.60;8.70;;;;;;;-147.86;100.00;50172.63;105239;1260;60080;-48
2023/11/11 05:48:48;;;;;;;17.50;9.40;;;;;;;-147.86;100.00;50114.96;105398;1260;71782;-47
2023/11/11 05:51:17;;;;;;;13.80;9.50;;;;;;;-147.86;100.00;50071.43;105255;1264;64093;-48
2023/11/11 05:53:45;;;;;;;19.20;10.00;;;;;;;-147.86;100.00;50049.85;105247;1261;71335;-49
2023/11/11 05:56:14;;;;;;;17.80;9.50;;;;;;;-147.86;100.00;49992.58;105229;1259;59621;-48
2023/11/11 05:58:42;;;;;;;10.80;8.80;;;;;;;-147.86;100.00;49940.41;105229;1264;59627;-52
2023/11/11 06:01:11;;;;;;;18.60;9.70;;;;;;;-147.86;100.00;49890.99;105297;1263;73098;-51
2023/11/11 06:03:39;;;;;;;12.40;9.10;;;;;;;-147.86;100.00;49843.14;105280;1260;64060;-45
2023/11/11 06:06:07;;;;;;;13.80;9.60;;;;;;;-147.86;100.00;49801.56;105432;1261;71542;-48
2023/11/11 06:08:35;;;;;;;15.20;9.20;;;;;;;-147.86;100.00;49771.75;105250;1260;59626;-48
2023/11/11 06:11:03;;;;;;;14.30;8.80;;;;;;;-147.86;100.00;49726.64;105297;1264;59827;-48
2023/11/11 06:13:31;;;;;;;21.20;9.20;;;;;;;-147.86;100.00;49679.97;105252;1260;71802;-51
2023/11/11 06:15:59;;;;;;;11.00;8.30;;;;;;;-147.86;100.00;49628.20;105891;1257;63932;-49
2023/11/11 06:18:27;;;;;;;16.30;7.70;;;;;;;-147.86;100.00;49592.12;105969;1251;72574;-48
2023/11/11 06:20:56;;;;;;;12.60;7.80;;;;;;;-147.86;100.00;49539.95;105850;1257;60785;-49
2023/11/11 06:23:24;;;;;;;14.30;8.40;;;;;;;-147.86;100.00;49505.43;105949;1253;59878;-50
2023/11/11 06:25:54;;;;;;;16.80;8.70;;;;;;;-147.86;100.00;49428.17;105932;1251;71857;-47
2023/11/11 06:28:22;;;;;;;15.50;8.80;;;;;;;-147.86;100.00;49363.86;105897;1253;65307;-50
2023/11/11 06:30:50;;;;;;;17.00;8.70;;;;;;;-147.86;100.00;49300.32;105858;1256;71431;-50
2023/11/11 06:33:18;;;;;;;13.50;8.30;;;;;;;-147.86;100.00;49259.93;105864;1252;60443;-49
2023/11/11 06:35:46;;;;;;;11.60;8.60;;;;;;;-147.86;100.00;49230.90;105954;1254;59973;-46
2023/11/11 06:38:13;;;;;;;11.30;7.80;;;;;;;-147.86;100.00;49188.55;105893;1256;73077;-50
2023/11/11 06:40:43;;;;;;;13.90;8.90;;;;;;;-147.86;100.00;49166.59;105911;1251;63532;-46
2023/11/11 06:43:10;;;;;;;16.90;8.70;;;;;;;-147.86;100.00;49149.73;105886;1256;72686;-52
2023/11/11 06:45:39;;;;;;;15.50;9.00;;;;;;;-147.86;100.00;49125.80;105901;1254;60513;-46
2023/11/11 06:48:07;;;;;;;12.60;8.70;;;;;;;-147.86;100.00;49105.02;105974;1253;59583;-49
2023/11/11 06:50:35;;;;;;;16.90;9.20;;;;;;;-147.86;100.00;49077.96;105878;1254;71827;-50
2023/11/11 06:53:02;;;;;;;13.40;8.00;;;;;;;-147.86;100.00;49069.73;105938;1253;64722;-47
2023/11/11 06:55:31;;;;;;;14.30;8.60;;;;;;;-147.86;100.00;49035.21;105943;1257;71464;-52
2023/11/11 06:57:59;;;;;;;13.80;7.00;;;;;;;-147.86;100.00;49022.27;105874;1252;61663;-51
2023/11/11 07:00:27;;;;;;;14.20;9.00;;;;;;;-147.86;100.00;48990.12;105938;1255;59532;-50
2023/11/11 07:02:55;;;;;;;16.40;7.80;;;;;;;-147.86;100.00;48956.39;105711;1253;71760;-48
2023/11/11 07:05:23;;;;;;;14.50;8.30;;;;;;;-147.86;100.00;48917.96;105733;1256;63116;-48
2023/11/11 07:07:51;;;;;;;10.00;7.60;;;;;;;-147.86;100.00;48903.46;105698;1253;71438;-49
2023/11/11 07:10:21;;;;;;;11.30;6.20;;;;;;;-147.86;100.00;48903.06;105889;1252;60500;-51
2023/11/11 07:12:49;;;;;;;13.00;6.50;;;;;;;-147.86;100.00;48877.97;105756;1258;60058;-51
2023/11/11 07:15:17;;;;;;;11.20;6.60;;;;;;;-147.86;100.00;48877.18;105760;1257;72439;-47
2023/11/11 07:17:45;;;;;;;11.00;6.90;;;;;;;-147.86;100.00;48870.13;105680;1256;65143;-48
2023/11/11 07:20:16;;;;;;;11.30;6.40;;;;;;;-147.86;100.00;48859.14;105650;1253;71451;-53
2023/11/11 07:22:45;;;;;;;12.10;6.00;;;;;;;-147.86;100.00;48848.16;105697;1253;61312;-46
2023/11/11 07:25:13;;;;;;;10.40;5.40;;;;;;;-147.86;100.00;48818.36;105879;1254;60097;-51
2023/11/11 07:27:41;;;;;;;8.50;5.80;;;;;;;-147.86;100.00;48825.81;105889;1253;71802;-49
2023/11/11 07:30:10;;;;;;;9.10;6.00;;;;;;;-147.86;100.00;48806.20;105707;1257;63934;-49
2023/11/11 07:32:40;;;;;;;9.40;5.30;;;;;;;-147.86;100.00;48802.28;105732;1257;71380;-48
2023/11/11 07:35:26;;;;;;;13.10;5.70;;;;;;;-147.86;100.00;48781.89;105660;1257;61696;-47
2023/11/11 07:37:54;;;;;;;9.40;5.40;;;;;;;-147.86;100.00;48757.19;105752;1257;59621;-50
2023/11/11 07:40:25;;;;;;;9.10;6.20;;;;;;;-147.86;100.00;48739.54;105710;1254;72236;-47
2023/11/11 07:42:55;;;;;;;14.20;5.90;;;;;;;-147.86;100.00;48715.23;105697;1253;62911;-50
2023/11/11 07:45:24;;;;;;;11.30;5.80;;;;;;;-147.86;100.00;48702.68;105725;1254;71463;-49
2023/11/11 07:47:52;;;;;;;7.70;5.50;;;;;;;-147.86;100.00;48693.66;105719;1257;60408;-50
2023/11/11 07:50:21;;;;;;;12.10;5.80;;;;;;;-147.86;100.00;48653.67;105730;1257;59907;-46
2023/11/11 07:52:49;;;;;;;7.30;5.60;;;;;;;-147.86;100.00;48650.14;105729;1253;71753;-48
2023/11/11 07:55:17;;;;;;;11.60;6.00;;;;;;;-147.86;100.00;48622.30;105664;1257;64087;-51
2023/11/11 07:57:45;;;;;;;10.80;5.30;;;;;;;-147.86;100.00;48621.12;105934;1254;71745;-48
2023/11/11 08:00:18;;;;;;;9.10;5.00;;;;;;;-147.86;100.00;48628.96;105722;1256;60573;-48
2023/11/11 08:02:47;;;;;;;9.70;5.10;;;;;;;-147.86;100.00;48616.41;105971;1256;59563;-51
2023/11/11 08:05:16;;;;;;;11.00;5.80;;;;;;;-147.86;100.00;48616.02;105949;1253;71767;-50
2023/11/11 08:07:44;;;;;;;8.60;5.50;;;;;;;-147.86;100.00;48603.08;105953;1254;66088;-48
2023/11/11 08:10:13;;;;;;;9.50;4.90;;;;;;;-147.86;100.00;48607.79;105896;1253;72730;-52
2023/11/11 08:12:40;;;;;;;14.70;5.20;;;;;;;-147.86;100.00;48624.65;105883;1254;60548;-47
2023/11/11 08:15:10;;;;;;;10.90;5.90;;;;;;;-147.86;100.00;48594.85;105872;1256;60322;-50
2023/11/11 08:17:38;;;;;;;9.60;6.20;;;;;;;-147.86;100.00;48612.10;105911;1253;72616;-48
2023/11/11 08:20:11;;;;;;;9.60;5.10;;;;;;;-147.86;100.00;48607.39;105855;1256;63962;-50
2023/11/11 08:22:40;;;;;;;8.00;5.40;;;;;;;-147.86;100.00;48602.30;105911;1257;71430;-46
2023/11/11 08:25:12;;;;;;;7.30;5.20;;;;;;;-147.86;100.00;48614.45;105953;1256;61741;-50
2023/11/11 08:27:41;;;;;;;8.50;5.50;;;;;;;-147.86;100.00;48612.49;105954;1253;60603;-50
2023/11/11 08:30:12;;;;;;;9.70;5.40;;;;;;;-147.86;100.00;48625.83;105678;1253;72604;-51
2023/11/11 08:32:40;;;;;;;12.60;5.50;;;;;;;-147.86;100.00;48621.12;105629;1257;63978;-46
2023/11/11 08:35:15;;;;;;;9.30;5.50;;;;;;;-147.86;100.00;48607.79;105695;1254;71357;-49
2023/11/11 08:37:47;;;;;;;9.10;5.40;;;;;;;-147.86;100.00;48641.90;105767;1253;60617;-48
2023/11/11 08:40:17;;;;;;;11.30;5.90;;;;;;;-147.86;100.00;48628.18;105781;1254;60322;-52
2023/11/11 08:42:46;;;;;;;13.80;6.30;;;;;;;-147.86;100.00;48634.06;106005;1253;72612;-50
2023/11/11 08:45:13;;;;;;;10.00;5.50;;;;;;;-147.86;100.00;48639.94;105905;1256;63997;-49
2023/11/11 08:47:41;;;;;;;11.20;6.20;;;;;;;-147.86;100.00;48649.74;105998;1251;71985;-52
2023/11/11 08:50:09;;;;;;;11.00;5.80;;;;;;;-147.86;100.00;48655.63;105890;1252;60473;-54
2023/11/11 08:52:41;;;;;;;12.00;6.10;;;;;;;-147.86;100.00;48668.96;105922;1256;60434;-51
2023/11/11 08:55:10;;;;;;;12.90;6.80;;;;;;;-147.86;100.00;48660.34;105925;1257;73822;-47
2023/11/11 08:57:39;;;;;;;9.70;6.30;;;;;;;-147.86;100.00;48678.76;105917;1253;63864;-50
2023/11/11 09:00:09;;;;;;;11.90;5.20;;;;;;;-147.86;100.00;48697.98;105928;1254;71407;-46
2023/11/11 09:02:38;;;;;;;10.00;5.50;;;;;;;-147.86;100.00;48695.63;105907;1254;60507;-48
2023/11/11 09:05:06;;;;;;;9.00;5.50;;;;;;;-147.86;100.00;48718.76;105962;1253;60819;-51
2023/11/11 09:07:34;;;;;;;13.50;6.40;;;;;;;-147.86;100.00;48716.01;105926;1256;73854;-48
2023/11/11 09:10:05;;;;;;;18.70;6.60;;;;;;;-147.86;100.00;48719.15;105896;1251;63426;-50
2023/11/11 09:12:33;;;;;;;18.30;6.20;;;;;;;-147.86;100.00;48750.13;105872;1256;71370;-48
2023/11/11 09:15:02;;;;;;;9.40;5.70;;;;;;;-147.86;100.00;48729.74;105625;1257;60470;-50
2023/11/11 09:17:30;;;;;;;9.70;6.20;;;;;;;-147.86;100.00;48752.48;105718;1251;60431;-46
2023/11/11 09:19:58;;;;;;;14.30;6.40;;;;;;;-147.86;100.00;48759.93;105931;1256;73882;-49
2023/11/11 09:22:27;;;;;;;14.40;7.00;;;;;;;-147.86;100.00;48777.97;105925;1254;63228;-50
2023/11/11 09:24:55;;;;;;;8.80;6.20;;;;;;;-147.86;100.00;48801.89;105958;1251;71444;-51
2023/11/11 09:27:23;;;;;;;16.70;6.30;;;;;;;-147.86;100.00;48837.57;105905;1257;60461;-46
2023/11/11 09:29:51;;;;;;;10.80;6.10;;;;;;;-147.86;100.00;48846.20;105853;1251;60482;-46
2023/11/11 09:32:18;;;;;;;14.80;6.20;;;;;;;-147.86;100.00;48858.36;105943;1251;72620;-49
2023/11/11 09:34:47;;;;;;;10.20;6.10;;;;;;;-147.86;100.00;48870.12;105931;1251;63923;-46
2023/11/11 09:37:14;;;;;;;15.60;6.60;;;;;;;-147.86;100.00;48870.91;105920;1257;71414;-49
2023/11/11 09:39:43;;;;;;;10.60;6.20;;;;;;;-147.86;100.00;48863.06;105906;1257;60967;-48
2023/11/11 09:42:11;;;;;;;8.40;6.20;;;;;;;-147.86;100.00;48889.73;105922;1253;60357;-47
2023/11/11 09:44:42;;;;;;;13.10;5.70;;;;;;;-147.86;100.00;48923.06;105724;1257;72359;-46
2023/11/11 09:47:13;;;;;;;10.80;5.80;;;;;;;-147.86;100.00;48954.43;105931;1251;64069;-51
2023/11/11 09:49:40;;;;;;;7.00;5.50;;;;;;;-147.86;100.00;48993.26;105669;1257;72595;-50
2023/11/11 09:52:11;;;;;;;8.70;5.70;;;;;;;-147.86;100.00;49026.98;105866;1254;60507;-50
2023/11/11 09:54:40;;;;;;;11.10;6.90;;;;;;;-147.86;100.00;49070.12;105725;1253;60472;-49
2023/11/11 09:57:11;;;;;;;12.30;6.60;;;;;;;-147.86;100.00;49109.33;105938;1253;72841;-54
2023/11/11 09:59:39;;;;;;;12.20;6.70;;;;;;;-147.86;100.00;49148.94;105710;1252;63110;-52
2023/11/11 10:02:10;;;;;;;13.00;6.50;;;;;;;-147.86;100.00;49192.87;105849;1257;71429;-47
2023/11/11 10:04:39;;;;;;;11.50;6.50;;;;;;;-147.86;100.00;49266.60;105701;1251;60623;-50
2023/11/11 10:07:07;;;;;;;10.30;6.50;;;;;;;-147.86;100.00;49295.22;105898;1253;60581;-51
2023/11/11 10:09:36;;;;;;;12.20;6.90;;;;;;;-147.86;100.00;49376.41;105895;1257;76384;-49
2023/11/11 10:12:04;;;;;;;9.40;6.40;;;;;;;-147.86;100.00;49437.98;105903;1256;64966;-51
2023/11/11 10:14:33;;;;;;;12.10;6.30;;;;;;;-147.86;100.00;49473.27;105892;1253;71324;-47
2023/11/11 10:17:03;;;;;;;13.70;6.30;;;;;;;-147.86;100.00;49526.61;105901;1254;61318;-51
2023/11/11 10:19:32;;;;;;;12.50;7.00;;;;;;;-147.86;100.00;49579.96;105849;1257;60498;-51
2023/11/11 10:21:59;;;;;;;12.10;6.30;;;;;;;-147.86;100.00;49647.02;105861;1253;74516;-48
2023/11/11 10:24:27;;;;;;;11.40;6.50;;;;;;;-147.86;100.00;49686.25;105988;1257;63188;-46
2023/11/11 10:26:57;;;;;;;13.80;6.80;;;;;;;-147.86;100.00;49735.67;105912;1253;72659;-47
2023/11/11 10:29:26;;;;;;;13.60;6.90;;;;;;;-147.86;100.00;49789.79;105876;1252;60518;-52
2023/11/11 10:31:55;;;;;;;10.00;6.70;;;;;;;-147.86;100.00;49829.41;105902;1253;60472;-52
2023/11/11 10:34:23;;;;;;;12.80;6.80;;;;;;;-147.86;100.00;49883.14;105872;1253;72659;-48
2023/11/11 10:36:51;;;;;;;16.20;7.30;;;;;;;-147.86;100.00;49927.08;105872;1255;64021;-48
2023/11/11 10:39:19;;;;;;;13.10;6.90;;;;;;;-147.86;100.00;49970.62;105927;1254;71396;-48
2023/11/11 10:41:46;;;;;;;15.60;6.80;;;;;;;-147.86;100.00;49998.86;105892;1256;60453;-53
2023/11/11 10:44:14;;;;;;;10.90;7.00;;;;;;;-147.86;100.00;50045.54;105879;1253;60396;-50
2023/11/11 10:46:43;;;;;;;14.70;7.00;;;;;;;-147.86;100.00;50098.10;105899;1256;73102;-50
2023/11/11 10:49:12;;;;;;;18.80;6.90;;;;;;;-147.86;100.00;50145.96;105930;1256;63924;-52
2023/11/11 10:51:40;;;;;;;12.50;6.80;;;;;;;-147.86;100.00;50180.87;105672;1254;70859;-50
2023/11/11 10:54:08;;;;;;;11.60;6.70;;;;;;;-147.86;100.00;50205.19;105941;1254;60917;-51
2023/11/11 10:56:40;;;;;;;10.80;6.60;;;;;;;-147.86;100.00;50251.09;105951;1253;60539;-49
2023/11/11 10:59:07;;;;;;;11.30;6.50;;;;;;;-147.86;100.00;50278.15;105907;1253;73339;-50